createdAt,value
2023-02-19T00:01:26.693Z,86.08
2023-02-19T00:04:02.033Z,86.63
2023-02-19T00:06:30.568Z,86.45
2023-02-19T00:08:57.254Z,86.40
2023-02-19T00:11:26.526Z,86.32
2023-02-19T00:13:55.499Z,85.70
2023-02-19T00:16:30.356Z,85.46
2023-02-19T00:18:58.445Z,85.11
2023-02-19T00:21:25.884Z,84.56
2023-02-19T00:23:54.543Z,84.69
2023-02-19T00:26:21.474Z,84.70
2023-02-19T00:28:50.222Z,84.52
2023-02-19T00:31:25.807Z,84.22
2023-02-19T00:33:55.806Z,84.35
2023-02-19T00:36:23.646Z,84.31
2023-02-19T00:38:51.228Z,84.10
2023-02-19T00:41:19.239Z,83.92
2023-02-19T00:43:46.774Z,84.10
2023-02-19T00:46:14.994Z,83.64
2023-02-19T00:48:41.636Z,83.85
2023-02-19T00:51:08.490Z,84.08
2023-02-19T00:53:35.197Z,84.28
2023-02-19T00:56:01.944Z,83.95
2023-02-19T00:58:28.547Z,84.36
2023-02-19T01:00:55.193Z,84.58
2023-02-19T01:03:22.675Z,84.32
2023-02-19T01:05:50.477Z,84.32
2023-02-19T01:08:17.511Z,84.26
2023-02-19T01:10:44.272Z,84.12
2023-02-19T01:13:11.168Z,83.92
2023-02-19T01:15:38.105Z,83.70
2023-02-19T01:18:04.761Z,83.55
2023-02-19T01:20:31.669Z,83.46
2023-02-19T01:22:58.715Z,83.40
2023-02-19T01:25:25.299Z,83.80
2023-02-19T01:27:51.894Z,83.90
2023-02-19T01:30:18.704Z,83.51
2023-02-19T01:32:45.334Z,83.85
2023-02-19T01:35:11.970Z,83.71
2023-02-19T01:37:38.585Z,83.95
2023-02-19T01:40:05.550Z,83.54
2023-02-19T01:42:32.148Z,83.38
2023-02-19T01:45:22.122Z,83.37
2023-02-19T01:48:03.323Z,83.85
2023-02-19T01:50:34.927Z,83.79
2023-02-19T01:53:06.068Z,83.45
2023-02-19T01:55:34.057Z,84.01
2023-02-19T01:58:03.290Z,84.43
2023-02-19T02:00:30.688Z,84.75
2023-02-19T02:02:58.465Z,85.92
2023-02-19T02:05:36.234Z,86.29
2023-02-19T02:08:22.641Z,86.86
2023-02-19T02:10:50.652Z,87.30
2023-02-19T02:13:17.389Z,87.73
2023-02-19T02:15:53.300Z,88.14
2023-02-19T02:18:22.912Z,88.42
2023-02-19T02:21:26.852Z,89.24
2023-02-19T02:24:23.360Z,89.12
2023-02-19T02:27:17.722Z,89.26
2023-02-19T02:29:53.316Z,90.00
2023-02-19T02:32:33.336Z,89.18
2023-02-19T02:35:08.139Z,89.72
2023-02-19T02:37:38.989Z,89.74
2023-02-19T02:40:08.442Z,90.12
2023-02-19T02:42:38.774Z,90.16
2023-02-19T02:45:36.665Z,90.68
2023-02-19T02:48:31.850Z,90.26
2023-02-19T02:51:18.711Z,90.68
2023-02-19T02:54:25.352Z,90.74
2023-02-19T02:56:54.239Z,90.56
2023-02-19T02:59:25.255Z,91.00
2023-02-19T03:02:11.100Z,91.06
2023-02-19T03:05:03.988Z,90.83
2023-02-19T03:07:43.841Z,90.70
2023-02-19T03:10:17.155Z,90.75
2023-02-19T03:13:04.424Z,90.60
2023-02-19T03:16:00.216Z,90.51
2023-02-19T03:18:48.037Z,90.47
2023-02-19T03:21:20.926Z,90.30
2023-02-19T03:24:07.773Z,89.92
2023-02-19T03:26:36.316Z,90.24
2023-02-19T03:29:22.859Z,90.13
2023-02-19T03:32:16.942Z,89.71
2023-02-19T03:34:52.141Z,89.93
2023-02-19T03:37:27.705Z,89.99
2023-02-19T03:39:58.609Z,90.11
2023-02-19T03:42:41.517Z,90.36
2023-02-19T03:45:14.244Z,90.61
2023-02-19T03:48:03.338Z,90.60
2023-02-19T03:50:43.402Z,90.83
2023-02-19T03:53:35.172Z,91.00
2023-02-19T03:56:14.549Z,91.48
2023-02-19T03:59:04.453Z,91.21
2023-02-19T04:01:41.908Z,91.22
2023-02-19T04:04:24.265Z,91.72
2023-02-19T04:06:55.167Z,91.61
2023-02-19T04:09:25.020Z,92.04
2023-02-19T04:11:59.472Z,91.92
2023-02-19T04:14:37.384Z,92.11
2023-02-19T04:17:09.365Z,91.91
2023-02-19T04:19:40.118Z,91.71
2023-02-19T04:22:09.648Z,92.17
2023-02-19T04:24:45.829Z,91.86
2023-02-19T04:27:12.488Z,92.01
2023-02-19T04:29:39.410Z,91.81
2023-02-19T04:32:06.550Z,91.39
2023-02-19T04:34:33.427Z,91.51
2023-02-19T04:37:00.072Z,92.07
2023-02-19T04:39:26.958Z,91.92
2023-02-19T04:41:53.546Z,91.99
2023-02-19T04:44:20.330Z,92.57
2023-02-19T04:46:47.140Z,92.35
2023-02-19T04:49:13.800Z,92.04
2023-02-19T04:51:40.883Z,92.43
2023-02-19T04:54:07.635Z,92.37
2023-02-19T04:56:34.589Z,92.14
2023-02-19T04:59:01.185Z,92.38
2023-02-19T05:01:27.913Z,92.56
2023-02-19T05:03:54.527Z,92.79
2023-02-19T05:06:21.119Z,92.67
2023-02-19T05:08:47.697Z,92.68
2023-02-19T05:11:14.503Z,92.57
2023-02-19T05:13:41.176Z,92.03
2023-02-19T05:16:13.806Z,92.26
2023-02-19T05:18:41.375Z,92.58
2023-02-19T05:21:08.737Z,92.20
2023-02-19T05:23:35.568Z,92.21
2023-02-19T05:26:09.975Z,91.80
2023-02-19T05:28:36.707Z,92.56
2023-02-19T05:31:09.054Z,92.50
2023-02-19T05:33:37.369Z,92.22
2023-02-19T05:36:06.992Z,91.90
2023-02-19T05:38:34.047Z,92.00
2023-02-19T05:41:14.127Z,92.02
2023-02-19T05:43:42.870Z,92.15
2023-02-19T05:46:11.092Z,91.55
2023-02-19T05:48:37.739Z,91.59
2023-02-19T05:51:10.986Z,91.59
2023-02-19T05:53:38.470Z,91.63
2023-02-19T05:56:17.469Z,91.63
2023-02-19T05:58:44.035Z,91.78
2023-02-19T06:01:18.260Z,91.94
2023-02-19T06:03:44.902Z,92.11
2023-02-19T06:06:14.891Z,92.00
2023-02-19T06:08:41.430Z,91.83
2023-02-19T06:11:08.260Z,91.63
2023-02-19T06:13:35.057Z,91.66
2023-02-19T06:16:05.398Z,91.56
2023-02-19T06:18:32.153Z,91.70
2023-02-19T06:21:03.221Z,91.51
2023-02-19T06:23:30.256Z,91.20
2023-02-19T06:26:20.418Z,91.09
2023-02-19T06:28:49.522Z,91.14
2023-02-19T06:31:17.059Z,91.48
2023-02-19T06:33:43.752Z,90.92
2023-02-19T06:36:15.426Z,91.30
2023-02-19T06:38:42.264Z,91.15
2023-02-19T06:41:10.418Z,91.70
2023-02-19T06:43:37.799Z,91.46
2023-02-19T06:46:06.202Z,91.08
2023-02-19T06:48:33.633Z,91.01
2023-02-19T06:51:00.351Z,91.31
2023-02-19T06:53:27.515Z,91.61
2023-02-19T06:56:05.114Z,91.95
2023-02-19T06:58:33.449Z,91.48
2023-02-19T07:01:00.272Z,91.35
2023-02-19T07:03:26.951Z,91.29
2023-02-19T07:05:53.919Z,91.35
2023-02-19T07:08:20.760Z,91.38
2023-02-19T07:10:55.923Z,91.42
2023-02-19T07:13:24.024Z,91.26
2023-02-19T07:15:52.183Z,91.27
2023-02-19T07:18:19.423Z,91.55
2023-02-19T07:20:46.047Z,89.86
2023-02-19T07:23:12.662Z,89.26
2023-02-19T07:25:39.536Z,89.24
2023-02-19T07:28:06.959Z,89.99
2023-02-19T07:30:33.742Z,89.99
2023-02-19T07:33:00.434Z,89.66
2023-02-19T07:35:27.410Z,89.77
2023-02-19T07:37:54.042Z,90.14
2023-02-19T07:40:20.694Z,89.98
2023-02-19T07:42:47.313Z,89.76
2023-02-19T07:45:13.985Z,90.15
2023-02-19T07:47:40.554Z,90.28
2023-02-19T07:50:07.639Z,90.45
2023-02-19T07:52:34.378Z,90.99
2023-02-19T07:55:01.014Z,90.72
2023-02-19T07:57:31.228Z,90.74
2023-02-19T07:59:58.753Z,90.33
2023-02-19T08:02:43.809Z,90.28
2023-02-19T08:05:10.692Z,89.55
2023-02-19T08:07:37.761Z,89.50
2023-02-19T08:10:24.000Z,89.67
2023-02-19T08:13:16.531Z,89.17
2023-02-19T08:15:43.520Z,89.27
2023-02-19T08:18:10.893Z,89.17
2023-02-19T08:20:37.556Z,88.72
2023-02-19T08:23:04.523Z,88.38
2023-02-19T08:25:31.704Z,88.48
2023-02-19T08:28:00.279Z,88.72
2023-02-19T08:30:31.033Z,88.88
2023-02-19T08:33:02.420Z,88.59
2023-02-19T08:35:29.406Z,88.12
2023-02-19T08:37:57.930Z,89.05
2023-02-19T08:40:25.955Z,88.48
2023-02-19T08:42:52.652Z,88.75
2023-02-19T08:45:19.298Z,87.83
2023-02-19T08:47:45.980Z,88.41
2023-02-19T08:50:12.654Z,87.96
2023-02-19T08:52:39.290Z,88.58
2023-02-19T08:55:06.356Z,88.53
2023-02-19T08:57:35.889Z,88.79
2023-02-19T09:00:02.468Z,89.09
2023-02-19T09:02:29.201Z,89.58
2023-02-19T09:04:55.862Z,89.35
2023-02-19T09:07:23.019Z,89.39
2023-02-19T09:09:49.637Z,89.03
2023-02-19T09:12:16.324Z,89.14
2023-02-19T09:14:42.890Z,89.20
2023-02-19T09:17:09.882Z,88.38
2023-02-19T09:19:38.226Z,87.91
2023-02-19T09:22:06.085Z,87.37
2023-02-19T09:24:32.763Z,86.80
2023-02-19T09:26:59.434Z,86.59
2023-02-19T09:29:27.740Z,86.27
2023-02-19T09:31:59.257Z,85.90
2023-02-19T09:34:27.354Z,85.15
2023-02-19T09:36:54.834Z,86.55
2023-02-19T09:39:21.878Z,86.10
2023-02-19T09:42:01.390Z,87.09
2023-02-19T09:44:32.845Z,86.75
2023-02-19T09:47:01.035Z,86.61
2023-02-19T09:49:36.857Z,86.59
2023-02-19T09:52:13.996Z,86.69
2023-02-19T09:54:41.695Z,86.73
2023-02-19T09:57:21.297Z,86.03
2023-02-19T09:59:51.846Z,85.59
2023-02-19T10:02:23.973Z,85.12
2023-02-19T10:04:52.225Z,85.70
2023-02-19T10:07:25.006Z,84.93
2023-02-19T10:09:57.379Z,83.97
2023-02-19T10:12:29.891Z,83.46
2023-02-19T10:15:29.294Z,82.67
2023-02-19T10:17:56.114Z,84.65
2023-02-19T10:20:26.800Z,80.36
2023-02-19T10:23:04.105Z,78.00
2023-02-19T10:25:32.947Z,79.39
2023-02-19T10:28:00.194Z,76.96
2023-02-19T10:30:33.356Z,76.83
2023-02-19T10:33:16.163Z,77.93
2023-02-19T10:36:00.012Z,78.85
2023-02-19T10:38:33.150Z,78.60
2023-02-19T10:41:23.097Z,77.19
2023-02-19T10:44:06.578Z,78.56
2023-02-19T10:46:42.107Z,80.98
2023-02-19T10:49:33.034Z,79.41
2023-02-19T10:52:20.295Z,79.39
2023-02-19T10:54:52.230Z,79.14
2023-02-19T10:57:19.240Z,77.73
2023-02-19T11:00:01.886Z,77.02
2023-02-19T11:02:30.638Z,75.95
2023-02-19T11:05:17.341Z,76.32
2023-02-19T11:07:50.119Z,77.71
2023-02-19T11:10:36.200Z,78.12
2023-02-19T11:13:05.932Z,78.96
2023-02-19T11:15:35.183Z,78.96
2023-02-19T11:18:15.111Z,76.56
2023-02-19T11:21:00.520Z,77.66
2023-02-19T11:23:30.812Z,78.28
2023-02-19T11:26:01.375Z,77.17
2023-02-19T11:28:38.938Z,75.77
2023-02-19T11:31:24.504Z,75.45
2023-02-19T11:34:29.240Z,75.27
2023-02-19T11:37:13.956Z,75.58
2023-02-19T11:39:44.017Z,76.72
2023-02-19T11:42:22.928Z,77.69
2023-02-19T11:45:04.706Z,76.66
2023-02-19T11:47:34.427Z,75.03
2023-02-19T11:50:22.728Z,72.22
2023-02-19T11:52:52.325Z,70.29
2023-02-19T11:55:31.723Z,72.72
2023-02-19T11:58:19.967Z,72.74
2023-02-19T12:01:10.155Z,70.15
2023-02-19T12:03:55.002Z,73.13
2023-02-19T12:06:52.185Z,71.45
2023-02-19T12:09:50.570Z,71.40
2023-02-19T12:12:24.273Z,72.27
2023-02-19T12:15:29.663Z,72.34
2023-02-19T12:18:08.070Z,72.34
2023-02-19T12:20:40.690Z,71.78
2023-02-19T12:23:19.235Z,72.04
2023-02-19T12:25:56.978Z,71.83
2023-02-19T12:28:38.678Z,69.70
2023-02-19T12:31:21.928Z,70.93
2023-02-19T12:34:10.039Z,68.64
2023-02-19T12:36:36.637Z,69.42
2023-02-19T12:39:05.871Z,65.97
2023-02-19T12:41:32.449Z,61.33
2023-02-19T12:44:08.483Z,57.26
2023-02-19T12:46:39.883Z,60.50
2023-02-19T12:49:33.479Z,62.17
2023-02-19T12:52:18.897Z,63.97
2023-02-19T12:54:50.079Z,65.57
2023-02-19T12:57:34.595Z,64.57
2023-02-19T13:00:07.544Z,57.80
2023-02-19T13:02:44.300Z,51.87
2023-02-19T13:05:29.971Z,50.64
2023-02-19T13:08:23.040Z,51.87
2023-02-19T13:10:56.620Z,56.23
2023-02-19T13:13:38.368Z,58.07
2023-02-19T13:16:18.714Z,60.29
2023-02-19T13:18:52.453Z,60.03
2023-02-19T13:21:59.703Z,58.81
2023-02-19T13:24:34.042Z,58.96
2023-02-19T13:27:20.333Z,60.26
2023-02-19T13:29:51.377Z,62.04
2023-02-19T13:32:31.698Z,62.95
2023-02-19T13:35:04.010Z,62.37
2023-02-19T13:37:35.164Z,63.92
2023-02-19T13:40:24.865Z,65.40
2023-02-19T13:42:55.133Z,65.10
2023-02-19T13:45:27.307Z,64.53
2023-02-19T13:47:57.540Z,64.73
2023-02-19T13:50:32.728Z,65.23
2023-02-19T13:53:23.124Z,67.21
2023-02-19T13:55:52.540Z,66.10
2023-02-19T13:58:54.013Z,66.25
2023-02-19T14:01:49.458Z,66.99
2023-02-19T14:04:22.036Z,67.81
2023-02-19T14:07:08.558Z,66.08
2023-02-19T14:09:41.026Z,65.61
2023-02-19T14:12:07.579Z,65.32
2023-02-19T14:14:44.032Z,64.97
2023-02-19T14:17:12.274Z,64.02
2023-02-19T14:19:41.875Z,65.20
2023-02-19T14:22:57.865Z,64.90
2023-02-19T14:25:29.887Z,63.95
2023-02-19T14:28:35.441Z,64.66
2023-02-19T14:31:39.617Z,65.83
2023-02-19T14:34:25.128Z,64.42
2023-02-19T14:37:00.980Z,64.53
2023-02-19T14:39:31.466Z,65.62
2023-02-19T14:42:05.815Z,64.72
2023-02-19T14:44:52.285Z,65.33
2023-02-19T14:47:21.826Z,65.24
2023-02-19T14:50:00.958Z,66.95
2023-02-19T14:52:36.906Z,66.80
2023-02-19T14:55:23.732Z,67.23
2023-02-19T14:57:54.070Z,67.82
2023-02-19T15:00:27.224Z,68.57
2023-02-19T15:02:57.466Z,68.72
2023-02-19T15:05:33.591Z,67.23
2023-02-19T15:08:09.127Z,67.51
2023-02-19T15:10:36.670Z,67.23
2023-02-19T15:13:06.001Z,66.37
2023-02-19T15:15:43.670Z,65.25
2023-02-19T15:18:18.407Z,64.09
2023-02-19T15:20:45.309Z,64.76
2023-02-19T15:23:20.721Z,64.31
2023-02-19T15:25:48.195Z,62.94
2023-02-19T15:28:24.005Z,63.88
2023-02-19T15:30:51.695Z,64.54
2023-02-19T15:33:20.329Z,63.89
2023-02-19T15:35:57.204Z,63.54
2023-02-19T15:38:25.562Z,64.70
2023-02-19T15:40:53.284Z,64.62
2023-02-19T15:43:28.698Z,64.04
2023-02-19T15:46:01.025Z,63.80
2023-02-19T15:48:36.352Z,64.15
2023-02-19T15:51:10.067Z,64.05
2023-02-19T15:53:45.438Z,64.54
2023-02-19T15:56:28.356Z,64.84
2023-02-19T15:59:17.354Z,65.64
2023-02-19T16:01:44.555Z,66.97
2023-02-19T16:04:14.054Z,67.73
2023-02-19T16:07:01.173Z,66.98
2023-02-19T16:09:39.563Z,66.97
2023-02-19T16:12:24.622Z,67.72
2023-02-19T16:14:51.186Z,68.12
2023-02-19T16:17:23.208Z,68.20
2023-02-19T16:19:56.692Z,68.38
2023-02-19T16:22:26.711Z,69.39
2023-02-19T16:25:01.069Z,69.74
2023-02-19T16:27:40.234Z,69.44
2023-02-19T16:30:26.520Z,70.16
2023-02-19T16:33:31.869Z,70.60
2023-02-19T16:36:15.330Z,70.72
2023-02-19T16:39:03.329Z,70.58
2023-02-19T16:41:29.980Z,70.12
2023-02-19T16:43:56.584Z,70.64
2023-02-19T16:46:23.618Z,70.68
2023-02-19T16:48:51.130Z,71.26
2023-02-19T16:51:26.502Z,71.08
2023-02-19T16:53:53.836Z,71.35
2023-02-19T16:56:23.052Z,70.96
2023-02-19T16:58:50.350Z,71.51
2023-02-19T17:01:18.080Z,71.82
2023-02-19T17:03:47.503Z,72.13
2023-02-19T17:06:15.494Z,72.69
2023-02-19T17:08:44.334Z,72.31
2023-02-19T17:11:14.750Z,72.48
2023-02-19T17:13:42.402Z,72.79
2023-02-19T17:16:24.109Z,73.27
2023-02-19T17:18:51.496Z,74.03
2023-02-19T17:21:26.444Z,73.21
2023-02-19T17:23:53.994Z,73.86
2023-02-19T17:26:27.744Z,73.97
2023-02-19T17:28:56.591Z,74.56
2023-02-19T17:31:23.317Z,74.60
2023-02-19T17:33:50.563Z,74.41
2023-02-19T17:36:26.805Z,74.67
2023-02-19T17:38:55.127Z,74.46
2023-02-19T17:41:21.743Z,75.07
2023-02-19T17:43:50.352Z,74.97
2023-02-19T17:46:23.237Z,75.80
2023-02-19T17:48:50.708Z,76.11
2023-02-19T17:51:17.352Z,76.31
2023-02-19T17:53:44.003Z,76.20
2023-02-19T17:56:15.500Z,75.92
2023-02-19T17:58:42.142Z,76.48
2023-02-19T18:01:08.968Z,75.88
2023-02-19T18:03:36.021Z,75.46
2023-02-19T18:06:02.588Z,75.20
2023-02-19T18:08:29.136Z,74.40
2023-02-19T18:10:55.800Z,74.49
2023-02-19T18:13:22.451Z,74.66
2023-02-19T18:15:49.056Z,75.28
2023-02-19T18:18:15.920Z,74.49
2023-02-19T18:20:42.552Z,75.68
2023-02-19T18:23:09.169Z,75.45
2023-02-19T18:25:35.750Z,75.16
2023-02-19T18:28:02.366Z,74.89
2023-02-19T18:30:29.849Z,75.34
2023-02-19T18:32:57.488Z,74.93
2023-02-19T18:35:24.176Z,75.33
2023-02-19T18:37:54.680Z,74.97
2023-02-19T18:40:25.279Z,74.39
2023-02-19T18:42:52.160Z,74.83
2023-02-19T18:45:19.136Z,74.95
2023-02-19T18:47:47.701Z,74.58
2023-02-19T18:50:14.679Z,75.03
2023-02-19T18:52:41.401Z,74.40
2023-02-19T18:55:10.673Z,73.36
2023-02-19T18:57:37.462Z,73.56
2023-02-19T19:00:06.454Z,73.34
2023-02-19T19:02:47.147Z,73.65
2023-02-19T19:05:23.006Z,73.53
2023-02-19T19:07:51.526Z,74.00
2023-02-19T19:10:18.893Z,74.30
2023-02-19T19:12:45.739Z,74.44
2023-02-19T19:15:12.300Z,74.83
2023-02-19T19:17:40.425Z,74.34
2023-02-19T19:20:08.137Z,74.82
2023-02-19T19:22:34.998Z,74.91
2023-02-19T19:25:01.568Z,75.27
2023-02-19T19:27:28.178Z,75.36
2023-02-19T19:29:54.839Z,75.26
2023-02-19T19:32:21.582Z,75.53
2023-02-19T19:34:48.387Z,75.83
2023-02-19T19:37:15.002Z,75.84
2023-02-19T19:39:43.227Z,75.48
2023-02-19T19:42:09.995Z,75.33
2023-02-19T19:44:36.645Z,75.48
2023-02-19T19:47:03.285Z,75.89
2023-02-19T19:49:29.896Z,75.92
2023-02-19T19:52:00.852Z,76.02
2023-02-19T19:54:28.300Z,76.33
2023-02-19T19:56:55.192Z,75.91
2023-02-19T19:59:23.097Z,76.08
2023-02-19T20:01:55.066Z,76.58
2023-02-19T20:04:23.094Z,76.38
2023-02-19T20:06:50.364Z,76.45
2023-02-19T20:09:18.221Z,75.63
2023-02-19T20:11:50.261Z,76.19
2023-02-19T20:14:18.558Z,76.10
2023-02-19T20:16:47.367Z,76.50
2023-02-19T20:19:18.785Z,76.17
2023-02-19T20:21:47.162Z,76.64
2023-02-19T20:24:19.253Z,77.21
2023-02-19T20:26:45.998Z,76.78
2023-02-19T20:29:12.731Z,77.38
2023-02-19T20:31:40.045Z,77.43
2023-02-19T20:34:06.740Z,77.35
2023-02-19T20:36:33.328Z,77.68
2023-02-19T20:39:00.054Z,78.32
2023-02-19T20:41:26.611Z,78.16
2023-02-19T20:43:53.535Z,78.21
2023-02-19T20:46:20.188Z,78.60
2023-02-19T20:48:47.009Z,78.84
2023-02-19T20:51:13.847Z,78.43
2023-02-19T20:53:42.477Z,79.05
2023-02-19T20:56:11.465Z,78.94
2023-02-19T20:58:40.815Z,79.69
2023-02-19T21:01:08.411Z,79.90
2023-02-19T21:03:34.996Z,79.87
2023-02-19T21:06:01.607Z,80.41
2023-02-19T21:08:28.250Z,80.68
2023-02-19T21:10:56.235Z,80.78
2023-02-19T21:13:23.368Z,81.10
2023-02-19T21:15:50.081Z,80.99
2023-02-19T21:18:17.331Z,81.01
2023-02-19T21:20:44.033Z,80.83
2023-02-19T21:23:10.638Z,80.88
2023-02-19T21:25:37.194Z,80.63
2023-02-19T21:28:05.381Z,80.52
2023-02-19T21:30:32.081Z,80.33
2023-02-19T21:32:58.745Z,79.94
2023-02-19T21:35:25.311Z,80.07
2023-02-19T21:37:51.935Z,79.87
2023-02-19T21:40:18.557Z,79.92
2023-02-19T21:42:45.119Z,79.81
2023-02-19T21:45:11.760Z,79.75
2023-02-19T21:47:38.400Z,80.36
2023-02-19T21:50:06.490Z,80.26
2023-02-19T21:52:33.189Z,80.58
2023-02-19T21:54:59.768Z,80.55
2023-02-19T21:57:26.408Z,80.50
2023-02-19T21:59:53.437Z,80.26
2023-02-19T22:02:22.127Z,79.88
2023-02-19T22:04:55.578Z,79.96
2023-02-19T22:07:22.477Z,80.44
2023-02-19T22:09:50.288Z,80.02
2023-02-19T22:12:18.198Z,80.15
2023-02-19T22:14:45.194Z,80.54
2023-02-19T22:17:12.196Z,80.33
2023-02-19T22:19:39.121Z,80.08
2023-02-19T22:22:05.874Z,80.25
2023-02-19T22:24:32.442Z,80.79
2023-02-19T22:26:59.169Z,80.71
2023-02-19T22:29:25.752Z,81.03
2023-02-19T22:31:52.895Z,80.96
2023-02-19T22:34:19.715Z,81.47
2023-02-19T22:36:46.585Z,81.17
2023-02-19T22:39:27.391Z,81.39
2023-02-19T22:41:54.313Z,81.27
2023-02-19T22:44:20.968Z,81.76
2023-02-19T22:46:53.472Z,81.72
2023-02-19T22:49:21.334Z,81.35
2023-02-19T22:51:58.521Z,81.55
2023-02-19T22:54:26.970Z,80.87
2023-02-19T22:56:54.585Z,80.26
2023-02-19T22:59:21.384Z,79.93
2023-02-19T23:01:48.989Z,79.27
2023-02-19T23:04:16.311Z,79.09
2023-02-19T23:06:47.079Z,79.27
2023-02-19T23:09:15.247Z,79.26
2023-02-19T23:11:42.066Z,79.14
2023-02-19T23:14:08.781Z,79.69
2023-02-19T23:16:38.263Z,79.50
2023-02-19T23:19:06.997Z,79.25
2023-02-19T23:21:34.265Z,78.75
2023-02-19T23:24:02.005Z,78.89
2023-02-19T23:26:28.699Z,79.11
2023-02-19T23:28:55.323Z,78.47
2023-02-19T23:31:22.098Z,79.04
2023-02-19T23:33:49.040Z,78.70
2023-02-19T23:36:16.305Z,78.83
2023-02-19T23:38:46.888Z,78.36
2023-02-19T23:41:14.862Z,78.87
2023-02-19T23:43:41.436Z,78.90
2023-02-19T23:46:08.525Z,79.05
2023-02-19T23:48:35.467Z,78.96
2023-02-19T23:51:02.054Z,78.80
2023-02-19T23:53:28.643Z,79.51
2023-02-19T23:55:55.329Z,78.92
2023-02-19T23:58:21.863Z,79.02
